Time;durP1;ratioP1;P1;durP2;ratioP2;P2;SDS_P1;SDS_P2;PMS_P1;PMS_P2;Temp;Humidity;BMP_temperature;BMP_pressure;BME280_temperature;BME280_humidity;BME280_pressure;Samples;Min_cycle;Max_cycle;Signal;HPM_P1;HPM_P2
2022/12/06 00:00:29;;;;;;;29.52;9.30;;;8.20;67.80;;;;;;6204977;28;20806;-77
2022/12/06 00:03:30;;;;;;;24.55;9.90;;;8.20;67.70;;;;;;6233383;28;20044;-78
2022/12/06 00:06:36;;;;;;;30.20;11.32;;;8.30;67.80;;;;;;6205904;28;20041;-80
2022/12/06 00:09:36;;;;;;;22.65;10.10;;;8.20;67.70;;;;;;6216946;28;20136;-80
2022/12/06 00:12:37;;;;;;;27.30;10.50;;;8.20;67.80;;;;;;6244476;28;20037;-77
2022/12/06 00:15:38;;;;;;;25.10;9.82;;;8.20;67.70;;;;;;6234413;28;20040;-78
2022/12/06 00:18:41;;;;;;;25.27;10.23;;;8.20;67.70;;;;;;6236029;28;20049;-76
2022/12/06 00:21:42;;;;;;;22.33;9.80;;;8.10;67.60;;;;;;6235643;28;20037;-77
2022/12/06 00:24:43;;;;;;;24.15;9.85;;;8.10;67.80;;;;;;6237545;28;20111;-77
2022/12/06 00:27:44;;;;;;;23.33;10.35;;;8.10;67.90;;;;;;6260434;28;20041;-78
2022/12/06 00:30:45;;;;;;;23.92;10.63;;;7.90;67.90;;;;;;6258805;28;20029;-78
2022/12/06 00:33:46;;;;;;;25.98;10.93;;;8.00;67.90;;;;;;6259223;28;20065;-77
2022/12/06 00:36:47;;;;;;;30.15;10.43;;;8.00;68.00;;;;;;6275323;28;20037;-80
2022/12/06 00:39:48;;;;;;;28.02;10.68;;;8.00;68.10;;;;;;6245751;28;20040;-78
2022/12/06 00:42:49;;;;;;;28.10;9.77;;;7.90;68.10;;;;;;6256526;28;20033;-78
2022/12/06 00:45:50;;;;;;;20.55;8.13;;;7.90;68.30;;;;;;6267246;28;20044;-78
2022/12/06 00:48:52;;;;;;;22.23;9.65;;;7.90;68.30;;;;;;6247671;28;20381;-78
2022/12/06 00:51:53;;;;;;;26.60;10.48;;;7.90;68.30;;;;;;6241763;28;20037;-78
2022/12/06 00:54:54;;;;;;;25.83;9.07;;;7.90;68.50;;;;;;6235186;28;20029;-78
2022/12/06 00:57:55;;;;;;;28.13;9.50;;;7.80;68.40;;;;;;6257103;28;20086;-78
2022/12/06 01:01:07;;;;;;;23.95;9.57;;;7.90;68.60;;;;;;6263708;28;20032;-77
2022/12/06 01:04:08;;;;;;;26.13;9.60;;;7.90;68.50;;;;;;6230018;28;20057;-77
2022/12/06 01:07:09;;;;;;;22.35;9.77;;;7.90;68.50;;;;;;6232573;28;20077;-77
2022/12/06 01:10:10;;;;;;;23.25;9.15;;;7.90;68.60;;;;;;6212116;28;20033;-77
2022/12/06 01:13:11;;;;;;;34.38;10.68;;;7.90;68.40;;;;;;6225829;28;20152;-77
2022/12/06 01:16:17;;;;;;;29.33;8.63;;;8.00;68.50;;;;;;6235262;28;20045;-78
2022/12/06 01:19:18;;;;;;;19.05;8.45;;;8.00;68.40;;;;;;6213678;28;20037;-78
2022/12/06 01:22:19;;;;;;;25.10;9.93;;;7.90;68.50;;;;;;6255484;28;20040;-77
2022/12/06 01:25:20;;;;;;;21.75;9.40;;;7.90;68.20;;;;;;6241579;28;20375;-77
2022/12/06 01:28:21;;;;;;;24.02;8.98;;;7.80;68.20;;;;;;6255168;28;20437;-77
2022/12/06 01:31:22;;;;;;;20.90;8.52;;;7.80;68.40;;;;;;6246859;28;20035;-78
2022/12/06 01:34:23;;;;;;;21.13;8.95;;;7.80;68.40;;;;;;6257255;28;20049;-79
2022/12/06 01:37:24;;;;;;;24.17;8.75;;;7.80;68.40;;;;;;6239236;28;20045;-78
2022/12/06 01:40:25;;;;;;;26.90;8.25;;;7.90;68.50;;;;;;6223308;28;20058;-78
2022/12/06 01:43:42;;;;;;;29.00;10.88;;;7.80;68.20;;;;;;6242658;28;20037;-78
2022/12/06 01:46:44;;;;;;;32.95;10.98;;;7.80;68.30;;;;;;6233166;28;20073;-79
2022/12/06 01:49:53;;;;;;;24.42;9.50;;;7.80;68.50;;;;;;6223357;28;20477;-78
2022/12/06 01:53:06;;;;;;;22.63;7.88;;;7.80;68.40;;;;;;6230916;28;20118;-78
2022/12/06 01:56:07;;;;;;;20.25;8.93;;;7.70;68.40;;;;;;6238311;28;20069;-77
2022/12/06 01:59:10;;;;;;;19.20;8.20;;;7.70;68.50;;;;;;6237625;28;20474;-78
2022/12/06 02:02:12;;;;;;;18.33;7.63;;;7.70;68.50;;;;;;6248273;28;20079;-79
2022/12/06 02:05:15;;;;;;;25.38;8.77;;;7.70;68.60;;;;;;6250236;28;20060;-78
2022/12/06 02:08:17;;;;;;;17.75;7.47;;;7.70;68.50;;;;;;6253145;28;20046;-79
2022/12/06 02:11:18;;;;;;;16.52;7.07;;;7.70;68.30;;;;;;6251209;28;20046;-79
2022/12/06 02:14:24;;;;;;;16.95;7.47;;;7.70;68.40;;;;;;6266393;28;20072;-78
2022/12/06 02:17:56;;;;;;;18.65;8.05;;;7.60;68.40;;;;;;6242151;28;20033;-78
2022/12/06 02:21:26;;;;;;;20.38;7.95;;;7.60;68.50;;;;;;6249446;28;20087;-78
2022/12/06 02:24:54;;;;;;;21.42;8.82;;;7.60;68.50;;;;;;6185404;28;20125;-78
2022/12/06 02:28:10;;;;;;;20.10;7.55;;;7.60;68.40;;;;;;6188999;28;20061;-79
2022/12/06 02:31:26;;;;;;;17.58;8.00;;;7.60;68.50;;;;;;6180792;28;20066;-79
2022/12/06 02:34:32;;;;;;;15.15;6.72;;;7.60;68.60;;;;;;6195703;28;20061;-78
2022/12/06 02:37:40;;;;;;;21.02;7.90;;;7.50;68.50;;;;;;6213240;28;20076;-79
2022/12/06 02:40:46;;;;;;;22.67;8.55;;;7.50;68.50;;;;;;6213132;28;20050;-78
2022/12/06 02:43:53;;;;;;;20.25;8.13;;;7.50;68.60;;;;;;6214890;28;20042;-78
2022/12/06 02:46:56;;;;;;;19.70;7.70;;;7.50;68.70;;;;;;6215844;28;20033;-78
2022/12/06 02:49:59;;;;;;;17.55;6.65;;;7.50;68.70;;;;;;6192667;28;20418;-78
2022/12/06 02:53:03;;;;;;;20.35;7.63;;;7.50;68.50;;;;;;6208559;28;20050;-78
2022/12/06 02:56:04;;;;;;;20.50;8.38;;;7.40;68.50;;;;;;6192423;28;20054;-78
2022/12/06 02:59:05;;;;;;;17.40;7.18;;;7.40;68.60;;;;;;6192726;28;20048;-78
2022/12/06 03:02:10;;;;;;;19.15;9.70;;;7.30;68.80;;;;;;6250265;28;20053;-78
2022/12/06 03:05:23;;;;;;;26.13;9.43;;;7.40;68.90;;;;;;6251848;28;20430;-79
2022/12/06 03:08:31;;;;;;;20.88;8.00;;;7.50;68.90;;;;;;6253820;28;20041;-78
2022/12/06 03:11:35;;;;;;;;;;;7.40;68.90;;;;;;6262915;28;20030;-78
2022/12/06 03:15:07;;;;;;;14.40;6.78;;;7.40;68.80;;;;;;6257258;28;19955;-77
2022/12/06 03:18:19;;;;;;;19.67;6.97;;;7.50;68.60;;;;;;6262299;28;20883;-78
2022/12/06 03:21:35;;;;;;;18.00;7.32;;;7.50;68.50;;;;;;6253197;28;20072;-79
2022/12/06 03:24:39;;;;;;;18.10;7.75;;;7.40;68.20;;;;;;6258737;28;20061;-78
2022/12/06 03:27:41;;;;;;;19.33;6.90;;;7.40;68.00;;;;;;6263300;28;20037;-78
2022/12/06 03:30:46;;;;;;;11.68;4.55;;;7.40;68.00;;;;;;6263116;28;20121;-77
2022/12/06 03:33:59;;;;;;;20.88;6.78;;;7.30;67.80;;;;;;6242293;28;20034;-78
2022/12/06 03:37:03;;;;;;;15.23;7.18;;;7.30;68.00;;;;;;6226967;28;20087;-78
2022/12/06 03:40:17;;;;;;;11.05;5.70;;;7.20;68.10;;;;;;6232001;28;20034;-78
2022/12/06 03:43:18;;;;;;;14.20;6.22;;;7.20;68.20;;;;;;6242737;28;20052;-78
2022/12/06 03:46:38;;;;;;;14.48;6.63;;;7.20;68.20;;;;;;6239318;28;20116;-78
2022/12/06 03:49:51;;;;;;;11.27;4.72;;;7.20;68.10;;;;;;6231172;28;20080;-78
2022/12/06 03:52:52;;;;;;;16.33;6.75;;;7.10;68.20;;;;;;6246025;28;20033;-79
2022/12/06 03:55:53;;;;;;;23.80;8.10;;;7.10;68.20;;;;;;6236345;28;20485;-78
2022/12/06 03:58:54;;;;;;;24.70;7.30;;;7.10;68.40;;;;;;6230265;28;20068;-78
2022/12/06 04:01:55;;;;;;;14.35;6.25;;;7.10;68.60;;;;;;6239538;28;20033;-78
2022/12/06 04:04:56;;;;;;;19.42;6.43;;;7.10;68.50;;;;;;6222723;28;20033;-80
2022/12/06 04:07:57;;;;;;;15.55;7.45;;;7.10;68.40;;;;;;6233895;28;20469;-78
2022/12/06 04:10:58;;;;;;;16.63;6.65;;;7.10;68.40;;;;;;6246475;28;20083;-78
2022/12/06 04:13:59;;;;;;;19.55;5.97;;;7.10;68.40;;;;;;6255070;28;20045;-78
2022/12/06 04:20:19;;;;;;;19.48;7.57;;;7.00;68.70;;;;;;6241757;28;20048;-77
2022/12/06 04:23:20;;;;;;;18.00;7.05;;;7.00;68.90;;;;;;6247393;28;20569;-77
2022/12/06 04:26:22;;;;;;;12.02;4.90;;;7.10;68.90;;;;;;6253865;28;20044;-77
2022/12/06 04:39:21;;;;;;;15.32;6.72;;;7.00;68.70;;;;;;6267990;28;20048;-77
2022/12/06 04:45:41;;;;;;;13.50;6.25;;;7.10;68.90;;;;;;6257754;28;20090;-79
2022/12/06 04:48:42;;;;;;;15.30;6.65;;;7.00;68.80;;;;;;6254855;28;20041;-78
2022/12/06 04:51:43;;;;;;;13.63;6.05;;;7.00;68.70;;;;;;6254412;28;20049;-78
2022/12/06 04:54:45;;;;;;;14.32;4.82;;;7.00;69.00;;;;;;6252081;28;20079;-79
2022/12/06 04:57:46;;;;;;;14.57;5.88;;;7.00;69.10;;;;;;6242115;28;20476;-77
2022/12/06 05:00:50;;;;;;;8.55;5.20;;;7.00;69.00;;;;;;6250871;28;20038;-77
2022/12/06 05:03:51;;;;;;;11.57;5.25;;;6.90;68.90;;;;;;6241175;28;20367;-78
2022/12/06 05:06:52;;;;;;;10.85;5.75;;;6.90;68.80;;;;;;6232495;28;20048;-79
2022/12/06 05:09:53;;;;;;;10.65;3.50;;;6.80;68.90;;;;;;6258967;28;20485;-78
2022/12/06 05:12:54;;;;;;;10.07;4.78;;;6.80;69.00;;;;;;6288655;28;20048;-78
2022/12/06 05:15:58;;;;;;;14.35;6.10;;;6.70;68.90;;;;;;6270624;28;20362;-78
2022/12/06 05:18:59;;;;;;;13.25;5.05;;;6.70;69.20;;;;;;6260908;28;20052;-78
2022/12/06 05:22:00;;;;;;;15.05;5.00;;;6.70;69.30;;;;;;6262372;28;20063;-79
2022/12/06 05:25:02;;;;;;;11.57;4.20;;;6.70;69.10;;;;;;6259193;28;20115;-79
2022/12/06 05:28:03;;;;;;;13.43;5.43;;;6.60;69.20;;;;;;6281822;28;20041;-78
2022/12/06 05:31:05;;;;;;;10.05;4.45;;;6.60;69.20;;;;;;6243045;28;20056;-79
2022/12/06 05:34:05;;;;;;;13.73;5.18;;;6.60;69.50;;;;;;6273079;28;20061;-79
2022/12/06 05:37:06;;;;;;;12.82;4.43;;;6.60;69.60;;;;;;6252987;28;20105;-78
2022/12/06 05:40:08;;;;;;;14.15;5.00;;;6.70;69.60;;;;;;6247003;28;20042;-78
2022/12/06 05:43:09;;;;;;;9.68;4.43;;;6.60;69.40;;;;;;6234991;28;20089;-78
2022/12/06 05:46:10;;;;;;;14.60;5.63;;;6.70;69.90;;;;;;6231420;28;20502;-79
2022/12/06 05:49:11;;;;;;;17.05;5.47;;;6.60;69.90;;;;;;6238478;28;20386;-77
2022/12/06 05:52:12;;;;;;;15.38;6.32;;;6.70;69.40;;;;;;6263825;28;20120;-78
2022/12/06 05:55:13;;;;;;;11.35;4.80;;;6.60;69.40;;;;;;6263008;28;20052;-79
2022/12/06 05:58:14;;;;;;;14.40;5.50;;;6.70;69.80;;;;;;6263216;28;20076;-78
2022/12/06 06:01:15;;;;;;;13.93;6.35;;;6.70;69.50;;;;;;6267914;28;20036;-77
2022/12/06 06:04:16;;;;;;;13.23;5.43;;;6.70;69.40;;;;;;6265033;28;20041;-79
2022/12/06 06:07:17;;;;;;;9.35;4.63;;;6.80;69.40;;;;;;6257427;28;20041;-80
2022/12/06 06:10:18;;;;;;;22.98;9.30;;;6.80;69.30;;;;;;6271465;28;20037;-79
2022/12/06 06:13:19;;;;;;;25.50;8.85;;;6.80;69.40;;;;;;6266571;28;20071;-79
2022/12/06 06:16:20;;;;;;;13.25;5.65;;;6.80;69.30;;;;;;6239468;28;20040;-80
2022/12/06 06:19:23;;;;;;;20.10;8.02;;;6.80;69.40;;;;;;6256931;28;20034;-79
2022/12/06 06:22:24;;;;;;;19.63;6.63;;;6.80;69.50;;;;;;6255421;28;20462;-79
2022/12/06 06:25:25;;;;;;;16.15;6.63;;;6.70;69.60;;;;;;6265282;28;20094;-78
2022/12/06 06:28:26;;;;;;;18.55;7.07;;;6.70;69.50;;;;;;6266317;28;20033;-78
2022/12/06 06:31:27;;;;;;;15.75;5.30;;;6.70;69.50;;;;;;6267081;28;20037;-77
2022/12/06 06:34:27;;;;;;;14.68;6.00;;;6.60;69.50;;;;;;6259716;28;20049;-77
2022/12/06 06:37:28;;;;;;;18.58;6.15;;;6.60;69.70;;;;;;6255303;28;20033;-77
2022/12/06 06:40:29;;;;;;;19.50;6.65;;;6.60;69.90;;;;;;6253767;28;20034;-77
2022/12/06 06:43:31;;;;;;;21.33;7.63;;;6.60;70.30;;;;;;6252433;28;20083;-76
2022/12/06 06:46:32;;;;;;;19.02;7.70;;;6.60;70.00;;;;;;6253142;28;20345;-76
2022/12/06 06:49:33;;;;;;;13.73;6.07;;;6.60;69.90;;;;;;6246440;28;20048;-76
2022/12/06 06:52:34;;;;;;;16.35;6.43;;;6.60;70.00;;;;;;6236331;28;20026;-77
2022/12/06 06:55:35;;;;;;;15.48;7.15;;;6.60;70.20;;;;;;6263629;28;20045;-76
2022/12/06 06:58:36;;;;;;;17.17;7.18;;;6.70;70.30;;;;;;6267426;28;20389;-76
2022/12/06 07:01:37;;;;;;;18.73;8.73;;;6.70;70.00;;;;;;6271836;28;20044;-76
2022/12/06 07:04:39;;;;;;;16.10;5.32;;;6.70;70.10;;;;;;6265304;28;20098;-78
2022/12/06 07:07:40;;;;;;;19.27;7.03;;;6.70;70.00;;;;;;6254490;28;20040;-76
2022/12/06 07:10:47;;;;;;;13.80;5.18;;;6.70;69.90;;;;;;6225315;28;20343;-78
2022/12/06 07:13:49;;;;;;;14.82;6.10;;;6.60;70.10;;;;;;6238630;28;20040;-78
2022/12/06 07:16:50;;;;;;;16.30;5.65;;;6.70;70.30;;;;;;6259183;28;20033;-77
2022/12/06 07:19:51;;;;;;;15.27;5.50;;;6.70;70.30;;;;;;6262667;28;20043;-76
2022/12/06 07:22:55;;;;;;;16.30;5.97;;;6.80;70.40;;;;;;6246836;28;20033;-77
2022/12/06 07:26:06;;;;;;;24.17;8.68;;;6.90;70.40;;;;;;6257695;28;20348;-79
2022/12/06 07:29:07;;;;;;;17.88;7.18;;;6.90;70.20;;;;;;6262984;28;20033;-77
2022/12/06 07:32:08;;;;;;;15.35;5.88;;;6.90;69.90;;;;;;6262433;28;20040;-77
2022/12/06 07:35:09;;;;;;;23.88;7.10;;;7.00;69.90;;;;;;6240178;28;20053;-77
2022/12/06 07:38:10;;;;;;;25.55;7.63;;;7.00;69.60;;;;;;6247205;28;20046;-78
2022/12/06 07:47:51;;;;;;;20.48;6.65;;;7.20;69.20;;;;;;6257278;28;20033;-79
2022/12/06 07:50:52;;;;;;;14.27;6.63;;;7.10;68.90;;;;;;6259507;28;20042;-77
2022/12/06 07:53:54;;;;;;;14.45;6.22;;;7.10;68.70;;;;;;6258266;28;20056;-77
2022/12/06 07:56:57;;;;;;;10.35;4.93;;;7.00;68.50;;;;;;6256976;28;20048;-77
2022/12/06 07:59:58;;;;;;;14.55;6.82;;;7.00;68.60;;;;;;6252304;28;20120;-78
2022/12/06 08:02:59;;;;;;;12.55;5.40;;;7.00;68.50;;;;;;6266739;28;20033;-78
2022/12/06 08:06:00;;;;;;;15.38;6.93;;;6.90;68.40;;;;;;6256602;28;20049;-77
2022/12/06 08:09:02;;;;;;;18.15;6.95;;;6.90;68.40;;;;;;6260568;28;20058;-77
2022/12/06 08:12:03;;;;;;;11.95;6.35;;;6.80;68.60;;;;;;6268286;28;20374;-78
2022/12/06 08:15:11;;;;;;;16.17;5.97;;;6.80;68.60;;;;;;6256388;28;20375;-77
2022/12/06 08:18:12;;;;;;;;;;;6.70;68.70;;;;;;6260638;28;20041;-77
2022/12/06 08:21:14;;;;;;;11.40;5.18;;;6.80;68.90;;;;;;6253773;28;19923;-78
2022/12/06 08:24:15;;;;;;;22.42;8.45;;;6.80;68.80;;;;;;6272894;28;20076;-77
2022/12/06 08:27:16;;;;;;;23.23;6.97;;;6.90;68.80;;;;;;6262774;28;20045;-78
2022/12/06 08:30:18;;;;;;;18.40;7.38;;;6.90;68.70;;;;;;6258206;28;20125;-77
2022/12/06 08:33:20;;;;;;;19.48;7.72;;;6.90;68.60;;;;;;6248110;28;20048;-77
2022/12/06 08:36:22;;;;;;;21.63;8.32;;;6.90;68.40;;;;;;6229679;28;20128;-77
2022/12/06 08:39:24;;;;;;;21.40;8.63;;;6.90;68.30;;;;;;6230970;28;20029;-77
2022/12/06 08:42:25;;;;;;;11.68;4.18;;;6.90;68.30;;;;;;6232358;28;20367;-78
2022/12/06 08:45:26;;;;;;;15.93;7.47;;;6.90;68.10;;;;;;6244958;28;20033;-76
2022/12/06 08:48:27;;;;;;;19.77;7.32;;;6.90;68.10;;;;;;6234300;28;20038;-77
2022/12/06 08:51:30;;;;;;;18.55;7.15;;;6.90;68.10;;;;;;6234363;28;20047;-77
2022/12/06 08:54:33;;;;;;;12.88;4.78;;;6.90;68.10;;;;;;6266420;28;20621;-79
2022/12/06 08:57:34;;;;;;;16.80;6.68;;;6.90;68.10;;;;;;6261764;28;20037;-79
2022/12/06 09:00:35;;;;;;;25.08;5.85;;;7.00;68.00;;;;;;6227091;28;20465;-78
2022/12/06 09:03:36;;;;;;;21.17;5.72;;;7.00;68.00;;;;;;6238670;28;20045;-78
2022/12/06 09:06:39;;;;;;;14.98;5.47;;;7.10;68.00;;;;;;6233681;28;20075;-79
2022/12/06 09:09:40;;;;;;;14.23;5.35;;;7.10;67.70;;;;;;6231096;28;20060;-77
2022/12/06 09:12:40;;;;;;;27.50;6.68;;;7.10;67.50;;;;;;6240725;28;20033;-79
2022/12/06 09:15:41;;;;;;;18.10;6.35;;;7.20;67.50;;;;;;6255757;28;20382;-77
2022/12/06 09:18:44;;;;;;;15.57;6.45;;;7.30;67.50;;;;;;6258592;28;20149;-78
2022/12/06 09:21:45;;;;;;;18.10;7.88;;;7.30;67.20;;;;;;6250237;28;20090;-78
2022/12/06 09:24:46;;;;;;;15.82;6.90;;;7.30;66.90;;;;;;6258103;28;20143;-77
2022/12/06 09:27:47;;;;;;;15.88;6.80;;;7.30;66.90;;;;;;6262278;28;20064;-77
2022/12/06 09:30:48;;;;;;;16.10;5.45;;;7.30;66.80;;;;;;6273337;28;20049;-76
2022/12/06 09:33:49;;;;;;;18.17;6.95;;;7.30;66.70;;;;;;6255480;28;20508;-77
2022/12/06 09:37:00;;;;;;;16.92;6.47;;;7.40;67.00;;;;;;6254508;28;20365;-77
2022/12/06 09:40:09;;;;;;;8.10;3.83;;;7.40;67.00;;;;;;6268095;28;20116;-77
2022/12/06 09:43:31;;;;;;;22.90;6.40;;;7.40;66.90;;;;;;6261141;28;20037;-77
2022/12/06 09:46:35;;;;;;;18.55;7.07;;;7.50;66.60;;;;;;6264157;28;20104;-77
2022/12/06 09:49:39;;;;;;;22.13;9.68;;;7.50;66.40;;;;;;6266230;28;20364;-76
2022/12/06 09:52:48;;;;;;;19.30;6.90;;;7.50;66.30;;;;;;6259592;28;20079;-78
2022/12/06 09:56:09;;;;;;;29.58;10.68;;;7.50;66.40;;;;;;6274689;28;20038;-78
2022/12/06 09:59:32;;;;;;;25.70;11.07;;;7.50;66.30;;;;;;6269725;28;20045;-77
2022/12/06 10:02:53;;;;;;;24.05;7.78;;;7.60;66.30;;;;;;6259331;28;20025;-77
2022/12/06 10:06:01;;;;;;;17.30;7.25;;;7.60;66.30;;;;;;6220758;28;20065;-78
2022/12/06 10:09:38;;;;;;;14.43;6.18;;;7.70;66.30;;;;;;6227583;28;20049;-78
2022/12/06 10:12:58;;;;;;;26.20;9.23;;;7.70;66.10;;;;;;6120010;29;20035;-77
2022/12/06 10:16:36;;;;;;;20.55;8.02;;;7.80;66.20;;;;;;6119827;29;20291;-78
2022/12/06 10:19:49;;;;;;;16.77;6.70;;;7.80;65.80;;;;;;6133902;29;20095;-77
2022/12/06 10:23:01;;;;;;;30.98;9.25;;;7.80;65.40;;;;;;6128369;28;20394;-77
2022/12/06 10:26:15;;;;;;;19.27;7.20;;;7.80;64.70;;;;;;6132480;28;20074;-77
2022/12/06 10:29:21;;;;;;;24.83;10.80;;;7.70;64.50;;;;;;6106054;29;20046;-78
2022/12/06 10:32:30;;;;;;;14.55;6.75;;;7.80;64.80;;;;;;6118440;28;20031;-76
2022/12/06 10:35:54;;;;;;;24.83;9.15;;;7.80;64.60;;;;;;6118654;29;20047;-79
2022/12/06 10:39:07;;;;;;;25.45;10.57;;;7.80;64.40;;;;;;6113098;29;20090;-77
2022/12/06 10:42:21;;;;;;;38.88;13.57;;;7.90;64.50;;;;;;6132173;28;20043;-78
2022/12/06 10:49:10;;;;;;;26.15;11.05;;;8.00;64.40;;;;;;6175768;28;20514;-77
2022/12/06 10:52:37;;;;;;;28.35;10.10;;;8.10;64.60;;;;;;6253397;28;20095;-78
2022/12/06 10:56:03;;;;;;;24.52;10.70;;;8.20;64.40;;;;;;6256603;28;20053;-76
2022/12/06 10:59:13;;;;;;;39.80;14.95;;;8.40;64.00;;;;;;6263820;28;20067;-77
2022/12/06 11:02:38;;;;;;;25.98;10.00;;;8.50;63.20;;;;;;6254653;28;20036;-78
2022/12/06 11:05:53;;;;;;;18.90;8.80;;;8.50;62.90;;;;;;6254501;28;20064;-77
2022/12/06 11:09:18;;;;;;;31.65;11.23;;;8.40;62.90;;;;;;6260242;28;20396;-77
2022/12/06 11:12:24;;;;;;;27.92;10.80;;;8.40;63.10;;;;;;6254098;28;20476;-78
2022/12/06 11:15:32;;;;;;;28.95;10.68;;;8.50;63.30;;;;;;6255446;28;20128;-79
2022/12/06 11:18:33;;;;;;;28.73;10.82;;;8.80;63.40;;;;;;6258174;28;20041;-78
2022/12/06 11:21:50;;;;;;;23.02;9.25;;;8.90;62.80;;;;;;6262673;28;20044;-79
2022/12/06 11:25:06;;;;;;;31.65;11.05;;;9.10;62.20;;;;;;6257440;28;20026;-78
2022/12/06 11:28:29;;;;;;;28.75;10.50;;;9.20;61.40;;;;;;6241202;28;20107;-80
2022/12/06 11:31:54;;;;;;;32.75;10.95;;;9.30;61.00;;;;;;6253928;28;20049;-77
2022/12/06 11:34:58;;;;;;;21.45;8.07;;;9.20;60.80;;;;;;6223467;28;20046;-76
2022/12/06 11:38:02;;;;;;;18.77;7.32;;;9.10;60.50;;;;;;6230583;28;20048;-79
2022/12/06 11:41:05;;;;;;;22.45;9.32;;;9.00;60.80;;;;;;6237037;28;20458;-78
2022/12/06 11:44:11;;;;;;;32.60;12.55;;;9.10;61.00;;;;;;6253312;28;20106;-78
2022/12/06 11:47:16;;;;;;;28.17;12.98;;;9.10;60.70;;;;;;6257116;28;20033;-77
2022/12/06 11:50:19;;;;;;;30.10;10.98;;;9.10;60.70;;;;;;6253279;28;20072;-79
2022/12/06 11:53:28;;;;;;;27.13;10.55;;;9.10;60.60;;;;;;6251949;28;20378;-77
2022/12/06 11:56:37;;;;;;;32.10;11.45;;;9.10;60.40;;;;;;6270039;28;20403;-77
2022/12/06 11:59:38;;;;;;;26.33;10.93;;;9.20;60.00;;;;;;6264771;28;20048;-77
2022/12/06 12:02:44;;;;;;;21.52;9.57;;;9.20;59.90;;;;;;6255230;28;20052;-78
2022/12/06 12:05:45;;;;;;;20.70;9.18;;;9.30;59.90;;;;;;6254511;28;20500;-79
2022/12/06 12:09:04;;;;;;;29.27;10.48;;;9.30;59.60;;;;;;6250372;28;20029;-77
2022/12/06 12:12:18;;;;;;;26.17;9.07;;;9.40;59.40;;;;;;6252612;28;20042;-77
2022/12/06 12:15:20;;;;;;;22.60;9.48;;;9.30;59.40;;;;;;6252944;28;20046;-77
2022/12/06 12:18:25;;;;;;;26.10;9.48;;;9.30;59.40;;;;;;6255677;28;20044;-78
2022/12/06 12:21:44;;;;;;;23.42;9.63;;;9.30;59.50;;;;;;6260629;28;20390;-78
2022/12/06 12:24:57;;;;;;;19.00;8.23;;;9.40;59.60;;;;;;6254736;28;20083;-79
2022/12/06 12:28:19;;;;;;;21.88;9.95;;;9.50;59.30;;;;;;6258331;28;20053;-78
2022/12/06 12:31:22;;;;;;;29.67;10.02;;;9.50;59.20;;;;;;6251650;28;20442;-79
2022/12/06 12:34:29;;;;;;;19.27;8.68;;;9.60;59.00;;;;;;6251281;28;20426;-79
2022/12/06 12:37:30;;;;;;;25.98;10.65;;;9.60;58.90;;;;;;6253796;28;20044;-78
2022/12/06 12:40:49;;;;;;;29.98;9.60;;;9.50;59.00;;;;;;6250451;28;20098;-77
2022/12/06 12:44:28;;;;;;;20.15;7.53;;;9.50;59.30;;;;;;6258267;28;20037;-77
2022/12/06 12:47:30;;;;;;;22.52;8.27;;;9.40;59.30;;;;;;6219940;28;20041;-77
2022/12/06 12:50:31;;;;;;;22.73;8.48;;;9.40;59.20;;;;;;6239463;28;20497;-77
2022/12/06 12:53:38;;;;;;;18.45;8.02;;;9.30;59.00;;;;;;6231060;28;20057;-77
2022/12/06 12:56:39;;;;;;;21.40;8.23;;;9.10;59.00;;;;;;6204872;28;20048;-78
2022/12/06 12:59:42;;;;;;;17.73;7.90;;;9.10;59.20;;;;;;6232163;28;20052;-79
2022/12/06 13:02:46;;;;;;;27.10;10.00;;;9.00;59.40;;;;;;6240520;28;20029;-77
2022/12/06 13:05:49;;;;;;;37.10;10.15;;;8.90;59.40;;;;;;6236674;28;20104;-77
2022/12/06 13:08:51;;;;;;;21.58;9.40;;;8.70;59.70;;;;;;6230560;28;20057;-79
2022/12/06 13:12:11;;;;;;;20.73;9.50;;;8.70;59.90;;;;;;6221919;28;20053;-78
2022/12/06 13:15:36;;;;;;;25.40;11.15;;;8.70;60.30;;;;;;6230389;28;20045;-77
2022/12/06 13:18:50;;;;;;;23.20;9.15;;;8.70;60.40;;;;;;6220623;28;20168;-77
2022/12/06 13:21:51;;;;;;;25.90;7.95;;;8.70;60.50;;;;;;6237677;28;20041;-78
2022/12/06 13:25:03;;;;;;;26.50;10.43;;;8.70;60.70;;;;;;6259640;28;20471;-79
2022/12/06 13:28:13;;;;;;;15.30;7.18;;;8.70;60.80;;;;;;6253986;28;20037;-79
2022/12/06 13:31:18;;;;;;;17.63;8.50;;;8.80;60.80;;;;;;6251404;28;20037;-77
2022/12/06 13:34:38;;;;;;;23.98;9.65;;;8.80;60.60;;;;;;6248348;28;20103;-77
2022/12/06 13:37:55;;;;;;;22.15;9.75;;;8.80;60.70;;;;;;6252938;28;20033;-77
2022/12/06 13:40:57;;;;;;;25.67;8.77;;;8.90;60.90;;;;;;6249505;28;20085;-78
2022/12/06 13:43:58;;;;;;;20.90;8.15;;;8.90;60.60;;;;;;6272457;28;20029;-78
2022/12/06 13:47:27;;;;;;;16.67;7.82;;;9.00;60.70;;;;;;6253645;28;20033;-76
2022/12/06 13:50:30;;;;;;;18.95;8.50;;;9.00;60.70;;;;;;6244334;28;20464;-77
2022/12/06 13:53:32;;;;;;;28.40;8.32;;;9.00;60.40;;;;;;6230375;28;20125;-77
2022/12/06 13:56:33;;;;;;;24.83;9.82;;;9.00;60.50;;;;;;6231337;28;20257;-77
2022/12/06 13:59:37;;;;;;;19.42;9.07;;;9.00;60.60;;;;;;6250124;28;20047;-77
2022/12/06 14:02:45;;;;;;;30.02;11.27;;;9.10;60.60;;;;;;6259887;28;20029;-77
2022/12/06 14:06:08;;;;;;;22.85;8.30;;;9.10;60.60;;;;;;6265644;28;20389;-78
2022/12/06 14:09:10;;;;;;;19.52;8.70;;;9.10;60.60;;;;;;6257037;28;20148;-79
2022/12/06 14:12:21;;;;;;;17.85;8.35;;;9.20;60.60;;;;;;6255451;28;20430;-78
2022/12/06 14:15:22;;;;;;;25.52;9.25;;;9.20;60.60;;;;;;6253644;28;20082;-79
2022/12/06 14:18:26;;;;;;;20.00;9.57;;;9.20;60.50;;;;;;6260307;28;20045;-79
2022/12/06 14:21:36;;;;;;;42.80;14.82;;;9.30;60.60;;;;;;6257547;28;20036;-78
2022/12/06 14:24:40;;;;;;;18.27;8.65;;;9.30;60.70;;;;;;6247756;28;20069;-77
2022/12/06 14:27:43;;;;;;;26.80;10.43;;;9.30;60.70;;;;;;6279625;28;20492;-78
2022/12/06 14:30:45;;;;;;;22.48;8.05;;;9.40;60.70;;;;;;6259015;28;20033;-78
2022/12/06 14:33:46;;;;;;;17.20;8.70;;;9.40;60.70;;;;;;6263301;28;20038;-79
2022/12/06 14:36:47;;;;;;;16.88;6.85;;;9.40;60.40;;;;;;6266629;28;20033;-78
2022/12/06 14:39:52;;;;;;;20.80;9.02;;;9.50;60.60;;;;;;6268760;28;20033;-78
2022/12/06 14:43:01;;;;;;;18.50;8.20;;;9.50;60.40;;;;;;6261141;28;20029;-78
2022/12/06 14:46:06;;;;;;;24.73;8.82;;;9.50;60.30;;;;;;6246418;28;20034;-77
2022/12/06 14:52:32;;;;;;;22.33;8.63;;;9.50;60.20;;;;;;6247677;28;20044;-79
2022/12/06 14:55:37;;;;;;;23.38;9.75;;;9.50;60.10;;;;;;6244172;28;20133;-77
2022/12/06 14:58:41;;;;;;;22.27;8.20;;;9.50;60.10;;;;;;6247433;28;20085;-76
2022/12/06 15:01:48;;;;;;;17.85;8.02;;;9.50;60.00;;;;;;6247424;28;20033;-77
2022/12/06 15:04:49;;;;;;;19.80;8.40;;;9.40;60.70;;;;;;6247109;28;20037;-77
2022/12/06 15:07:50;;;;;;;27.40;8.35;;;9.40;60.00;;;;;;6268002;28;20029;-77
2022/12/06 15:11:02;;;;;;;16.15;8.35;;;9.30;60.00;;;;;;6264455;28;20049;-77
2022/12/06 15:14:18;;;;;;;20.08;8.90;;;9.40;60.20;;;;;;6267178;28;20045;-77
2022/12/06 15:17:21;;;;;;;24.25;9.98;;;9.30;60.30;;;;;;6253366;28;20029;-77
2022/12/06 15:20:22;;;;;;;21.08;7.35;;;9.30;60.30;;;;;;6261656;28;20402;-77
2022/12/06 15:23:28;;;;;;;18.67;7.63;;;9.30;60.50;;;;;;6274926;28;20037;-77
2022/12/06 15:26:29;;;;;;;16.65;7.63;;;9.40;60.50;;;;;;6246348;28;20048;-77
2022/12/06 15:29:30;;;;;;;21.95;8.40;;;9.30;60.40;;;;;;6231874;28;20034;-77
2022/12/06 15:32:32;;;;;;;21.02;8.70;;;9.30;60.50;;;;;;6248449;28;20432;-79
2022/12/06 15:35:33;;;;;;;20.27;8.18;;;9.30;60.50;;;;;;6262632;28;20378;-79
2022/12/06 15:38:34;;;;;;;19.90;9.38;;;9.30;60.60;;;;;;6262701;28;20175;-78
2022/12/06 15:41:37;;;;;;;18.67;8.35;;;9.30;60.60;;;;;;6277807;28;20588;-78
2022/12/06 15:44:37;;;;;;;17.10;6.70;;;9.30;60.60;;;;;;6260366;28;20029;-78
2022/12/06 15:47:38;;;;;;;17.77;7.32;;;9.30;60.60;;;;;;6257142;28;20041;-78
2022/12/06 15:50:39;;;;;;;21.58;8.82;;;9.20;60.50;;;;;;6264489;28;20041;-78
2022/12/06 15:53:41;;;;;;;24.23;9.00;;;9.20;60.60;;;;;;6257649;28;20052;-78
2022/12/06 15:56:43;;;;;;;20.60;8.90;;;9.20;60.70;;;;;;6259508;28;20037;-78
2022/12/06 15:59:44;;;;;;;25.30;8.40;;;9.20;60.80;;;;;;6262153;28;20102;-79
2022/12/06 16:02:45;;;;;;;18.40;9.77;;;9.20;60.80;;;;;;6255672;28;20041;-78
2022/12/06 16:05:46;;;;;;;19.70;8.48;;;9.20;60.90;;;;;;6264818;28;20112;-78
2022/12/06 16:08:47;;;;;;;30.30;10.45;;;9.10;60.90;;;;;;6266256;28;20059;-78
2022/12/06 16:11:48;;;;;;;26.88;10.55;;;9.10;60.90;;;;;;6266451;28;20447;-77
2022/12/06 16:14:49;;;;;;;23.52;8.73;;;9.10;61.10;;;;;;6267025;28;20041;-77
2022/12/06 16:17:50;;;;;;;28.48;9.98;;;9.00;61.10;;;;;;6255392;28;20131;-78
2022/12/06 16:20:51;;;;;;;20.48;9.55;;;8.90;61.30;;;;;;6240897;28;20402;-78
2022/12/06 16:24:00;;;;;;;31.80;10.35;;;8.90;61.50;;;;;;6224212;28;20086;-77
2022/12/06 16:27:01;;;;;;;27.88;9.65;;;8.80;61.60;;;;;;6240985;28;20043;-78
2022/12/06 16:30:03;;;;;;;23.70;10.40;;;8.70;61.70;;;;;;6240929;28;20041;-78
2022/12/06 16:33:05;;;;;;;28.15;10.80;;;8.70;61.90;;;;;;6241628;28;20045;-79